sensor_id;sensor_type;location;lat;lon;timestamp;P1;durP1;ratioP1;P2;durP2;ratioP2
74229;SDS011;62589;12.568;99.958;2023-09-19T00:00:20;2.53;;;1.55;;
74229;SDS011;62589;12.568;99.958;2023-09-19T00:02:55;3.00;;;1.42;;
74229;SDS011;62589;12.568;99.958;2023-09-19T00:05:23;3.30;;;1.70;;
74229;SDS011;62589;12.568;99.958;2023-09-19T00:07:51;4.00;;;1.67;;
74229;SDS011;62589;12.568;99.958;2023-09-19T00:10:21;2.72;;;1.30;;
74229;SDS011;62589;12.568;99.958;2023-09-19T00:12:50;2.25;;;1.20;;
74229;SDS011;62589;12.568;99.958;2023-09-19T00:15:24;3.38;;;1.40;;
74229;SDS011;62589;12.568;99.958;2023-09-19T00:17:58;2.17;;;1.10;;
74229;SDS011;62589;12.568;99.958;2023-09-19T00:20:25;2.50;;;1.42;;
74229;SDS011;62589;12.568;99.958;2023-09-19T00:22:51;2.65;;;1.60;;
74229;SDS011;62589;12.568;99.958;2023-09-19T00:25:19;3.53;;;1.33;;
74229;SDS011;62589;12.568;99.958;2023-09-19T00:27:46;1.98;;;1.23;;
74229;SDS011;62589;12.568;99.958;2023-09-19T00:30:15;3.03;;;1.35;;
74229;SDS011;62589;12.568;99.958;2023-09-19T00:32:45;2.13;;;1.25;;
74229;SDS011;62589;12.568;99.958;2023-09-19T00:35:17;4.03;;;1.50;;
74229;SDS011;62589;12.568;99.958;2023-09-19T00:37:44;2.33;;;1.63;;
74229;SDS011;62589;12.568;99.958;2023-09-19T00:40:11;5.72;;;1.98;;
74229;SDS011;62589;12.568;99.958;2023-09-19T00:42:39;3.85;;;1.60;;
74229;SDS011;62589;12.568;99.958;2023-09-19T00:45:06;2.90;;;1.30;;
74229;SDS011;62589;12.568;99.958;2023-09-19T00:50:23;4.10;;;1.50;;
74229;SDS011;62589;12.568;99.958;2023-09-19T00:52:54;3.53;;;1.48;;
74229;SDS011;62589;12.568;99.958;2023-09-19T00:55:24;4.57;;;1.30;;
74229;SDS011;62589;12.568;99.958;2023-09-19T00:57:51;4.20;;;1.38;;
74229;SDS011;62589;12.568;99.958;2023-09-19T01:00:18;3.55;;;1.60;;
74229;SDS011;62589;12.568;99.958;2023-09-19T01:02:45;5.47;;;1.83;;
74229;SDS011;62589;12.568;99.958;2023-09-19T01:05:12;2.67;;;1.38;;
74229;SDS011;62589;12.568;99.958;2023-09-19T01:07:39;3.60;;;1.63;;
74229;SDS011;62589;12.568;99.958;2023-09-19T01:10:06;4.57;;;1.50;;
74229;SDS011;62589;12.568;99.958;2023-09-19T01:15:36;2.03;;;1.48;;
74229;SDS011;62589;12.568;99.958;2023-09-19T01:18:35;3.60;;;1.55;;
74229;SDS011;62589;12.568;99.958;2023-09-19T01:21:25;3.35;;;1.73;;
74229;SDS011;62589;12.568;99.958;2023-09-19T01:27:06;3.05;;;1.80;;
74229;SDS011;62589;12.568;99.958;2023-09-19T01:30:01;3.58;;;1.92;;
74229;SDS011;62589;12.568;99.958;2023-09-19T01:32:36;2.63;;;2.08;;
74229;SDS011;62589;12.568;99.958;2023-09-19T01:35:04;5.25;;;2.85;;
74229;SDS011;62589;12.568;99.958;2023-09-19T01:37:31;4.57;;;3.30;;
74229;SDS011;62589;12.568;99.958;2023-09-19T01:39:59;8.88;;;3.78;;
74229;SDS011;62589;12.568;99.958;2023-09-19T01:42:43;9.60;;;4.13;;
74229;SDS011;62589;12.568;99.958;2023-09-19T01:50:56;10.23;;;4.28;;
74229;SDS011;62589;12.568;99.958;2023-09-19T01:56:31;7.13;;;4.00;;
74229;SDS011;62589;12.568;99.958;2023-09-19T01:59:11;6.70;;;3.97;;
74229;SDS011;62589;12.568;99.958;2023-09-19T02:01:42;5.78;;;3.72;;
74229;SDS011;62589;12.568;99.958;2023-09-19T02:04:11;5.55;;;3.22;;
74229;SDS011;62589;12.568;99.958;2023-09-19T02:06:39;4.50;;;3.25;;
74229;SDS011;62589;12.568;99.958;2023-09-19T02:09:07;7.40;;;3.17;;
74229;SDS011;62589;12.568;99.958;2023-09-19T02:11:34;5.10;;;2.80;;
74229;SDS011;62589;12.568;99.958;2023-09-19T02:14:02;3.53;;;2.50;;
74229;SDS011;62589;12.568;99.958;2023-09-19T02:16:29;5.43;;;3.00;;
74229;SDS011;62589;12.568;99.958;2023-09-19T02:18:56;4.20;;;2.53;;
74229;SDS011;62589;12.568;99.958;2023-09-19T02:21:22;5.30;;;2.45;;
74229;SDS011;62589;12.568;99.958;2023-09-19T02:23:49;4.05;;;2.13;;
74229;SDS011;62589;12.568;99.958;2023-09-19T02:26:16;4.15;;;2.30;;
74229;SDS011;62589;12.568;99.958;2023-09-19T02:28:45;4.50;;;2.38;;
74229;SDS011;62589;12.568;99.958;2023-09-19T02:31:12;4.35;;;1.98;;
74229;SDS011;62589;12.568;99.958;2023-09-19T02:33:39;2.70;;;1.77;;
74229;SDS011;62589;12.568;99.958;2023-09-19T02:36:05;3.80;;;1.80;;
74229;SDS011;62589;12.568;99.958;2023-09-19T02:38:33;1.45;;;1.27;;
74229;SDS011;62589;12.568;99.958;2023-09-19T02:40:59;1.35;;;1.25;;
74229;SDS011;62589;12.568;99.958;2023-09-19T02:43:26;2.47;;;1.45;;
74229;SDS011;62589;12.568;99.958;2023-09-19T02:45:53;2.25;;;1.45;;
74229;SDS011;62589;12.568;99.958;2023-09-19T02:48:20;2.25;;;1.58;;
74229;SDS011;62589;12.568;99.958;2023-09-19T02:50:49;3.97;;;1.85;;
74229;SDS011;62589;12.568;99.958;2023-09-19T02:53:16;2.75;;;1.63;;
74229;SDS011;62589;12.568;99.958;2023-09-19T02:55:44;3.17;;;1.95;;
74229;SDS011;62589;12.568;99.958;2023-09-19T02:58:12;4.57;;;1.75;;
74229;SDS011;62589;12.568;99.958;2023-09-19T03:00:39;4.20;;;1.65;;
74229;SDS011;62589;12.568;99.958;2023-09-19T03:03:07;6.40;;;1.88;;
74229;SDS011;62589;12.568;99.958;2023-09-19T03:05:34;2.95;;;1.55;;
74229;SDS011;62589;12.568;99.958;2023-09-19T03:08:01;2.90;;;1.52;;
74229;SDS011;62589;12.568;99.958;2023-09-19T03:10:28;2.10;;;1.38;;
74229;SDS011;62589;12.568;99.958;2023-09-19T03:12:56;1.60;;;1.10;;
74229;SDS011;62589;12.568;99.958;2023-09-19T03:15:25;1.60;;;1.05;;
74229;SDS011;62589;12.568;99.958;2023-09-19T03:17:51;1.77;;;1.15;;
74229;SDS011;62589;12.568;99.958;2023-09-19T03:20:19;1.80;;;1.10;;
74229;SDS011;62589;12.568;99.958;2023-09-19T03:22:46;2.55;;;1.20;;
74229;SDS011;62589;12.568;99.958;2023-09-19T03:25:13;2.55;;;1.33;;
74229;SDS011;62589;12.568;99.958;2023-09-19T03:27:40;2.10;;;1.13;;
74229;SDS011;62589;12.568;99.958;2023-09-19T03:30:07;4.57;;;1.20;;
74229;SDS011;62589;12.568;99.958;2023-09-19T03:32:35;2.53;;;1.20;;
74229;SDS011;62589;12.568;99.958;2023-09-19T03:35:02;2.72;;;1.45;;
74229;SDS011;62589;12.568;99.958;2023-09-19T03:37:32;3.15;;;1.48;;
74229;SDS011;62589;12.568;99.958;2023-09-19T03:39:59;3.03;;;1.65;;
74229;SDS011;62589;12.568;99.958;2023-09-19T03:42:30;2.45;;;1.17;;
74229;SDS011;62589;12.568;99.958;2023-09-19T03:44:57;1.77;;;1.35;;
74229;SDS011;62589;12.568;99.958;2023-09-19T03:47:25;4.28;;;1.10;;
74229;SDS011;62589;12.568;99.958;2023-09-19T03:49:54;3.35;;;1.33;;
74229;SDS011;62589;12.568;99.958;2023-09-19T03:52:20;3.78;;;0.90;;
74229;SDS011;62589;12.568;99.958;2023-09-19T03:54:47;2.55;;;1.00;;
74229;SDS011;62589;12.568;99.958;2023-09-19T03:57:14;3.30;;;0.90;;
74229;SDS011;62589;12.568;99.958;2023-09-19T03:59:46;1.65;;;1.00;;
74229;SDS011;62589;12.568;99.958;2023-09-19T04:02:13;1.55;;;0.85;;
74229;SDS011;62589;12.568;99.958;2023-09-19T04:04:51;2.67;;;0.80;;
74229;SDS011;62589;12.568;99.958;2023-09-19T04:07:17;2.15;;;1.17;;
74229;SDS011;62589;12.568;99.958;2023-09-19T04:09:48;1.52;;;1.00;;
74229;SDS011;62589;12.568;99.958;2023-09-19T04:12:14;2.13;;;1.20;;
74229;SDS011;62589;12.568;99.958;2023-09-19T04:14:42;1.58;;;0.80;;
74229;SDS011;62589;12.568;99.958;2023-09-19T04:17:09;1.52;;;0.80;;
74229;SDS011;62589;12.568;99.958;2023-09-19T04:19:36;1.38;;;1.10;;
74229;SDS011;62589;12.568;99.958;2023-09-19T04:22:03;2.75;;;1.15;;
74229;SDS011;62589;12.568;99.958;2023-09-19T04:24:29;3.72;;;1.10;;
74229;SDS011;62589;12.568;99.958;2023-09-19T04:26:57;3.72;;;1.33;;
74229;SDS011;62589;12.568;99.958;2023-09-19T04:29:24;1.67;;;1.38;;
74229;SDS011;62589;12.568;99.958;2023-09-19T04:31:55;3.47;;;1.25;;
74229;SDS011;62589;12.568;99.958;2023-09-19T04:34:22;3.90;;;1.85;;
74229;SDS011;62589;12.568;99.958;2023-09-19T04:36:49;2.40;;;1.35;;
74229;SDS011;62589;12.568;99.958;2023-09-19T04:39:16;2.35;;;1.30;;
74229;SDS011;62589;12.568;99.958;2023-09-19T04:41:43;2.72;;;1.70;;
74229;SDS011;62589;12.568;99.958;2023-09-19T04:44:13;2.72;;;1.55;;
74229;SDS011;62589;12.568;99.958;2023-09-19T04:46:39;2.85;;;1.35;;
74229;SDS011;62589;12.568;99.958;2023-09-19T04:49:06;2.80;;;1.42;;
74229;SDS011;62589;12.568;99.958;2023-09-19T04:51:32;3.08;;;1.40;;
74229;SDS011;62589;12.568;99.958;2023-09-19T04:54:01;2.08;;;1.30;;
74229;SDS011;62589;12.568;99.958;2023-09-19T04:56:28;2.40;;;1.30;;
74229;SDS011;62589;12.568;99.958;2023-09-19T04:58:55;2.05;;;1.02;;
74229;SDS011;62589;12.568;99.958;2023-09-19T05:01:24;3.60;;;1.35;;
74229;SDS011;62589;12.568;99.958;2023-09-19T05:03:50;1.40;;;1.20;;
74229;SDS011;62589;12.568;99.958;2023-09-19T05:06:20;4.20;;;1.13;;
74229;SDS011;62589;12.568;99.958;2023-09-19T05:08:50;5.30;;;1.98;;
74229;SDS011;62589;12.568;99.958;2023-09-19T05:11:18;2.13;;;1.33;;
74229;SDS011;62589;12.568;99.958;2023-09-19T05:13:47;3.50;;;1.48;;
74229;SDS011;62589;12.568;99.958;2023-09-19T05:16:16;2.25;;;1.25;;
74229;SDS011;62589;12.568;99.958;2023-09-19T05:18:43;3.70;;;1.25;;
74229;SDS011;62589;12.568;99.958;2023-09-19T05:21:10;2.17;;;1.17;;
74229;SDS011;62589;12.568;99.958;2023-09-19T05:23:37;2.58;;;0.95;;
74229;SDS011;62589;12.568;99.958;2023-09-19T05:26:04;1.95;;;1.08;;
74229;SDS011;62589;12.568;99.958;2023-09-19T05:28:30;3.45;;;1.00;;
74229;SDS011;62589;12.568;99.958;2023-09-19T05:31:00;2.17;;;0.90;;
74229;SDS011;62589;12.568;99.958;2023-09-19T05:33:27;2.50;;;1.20;;
74229;SDS011;62589;12.568;99.958;2023-09-19T05:35:56;1.60;;;1.00;;
74229;SDS011;62589;12.568;99.958;2023-09-19T05:38:22;1.65;;;0.90;;
74229;SDS011;62589;12.568;99.958;2023-09-19T05:40:49;1.02;;;0.90;;
74229;SDS011;62589;12.568;99.958;2023-09-19T05:43:16;1.30;;;1.17;;
74229;SDS011;62589;12.568;99.958;2023-09-19T05:45:44;1.55;;;1.25;;
74229;SDS011;62589;12.568;99.958;2023-09-19T05:48:12;1.77;;;1.02;;
74229;SDS011;62589;12.568;99.958;2023-09-19T05:50:40;2.55;;;1.30;;
74229;SDS011;62589;12.568;99.958;2023-09-19T05:53:06;2.75;;;1.15;;
74229;SDS011;62589;12.568;99.958;2023-09-19T05:55:33;4.20;;;1.38;;
74229;SDS011;62589;12.568;99.958;2023-09-19T05:58:00;3.17;;;1.50;;
74229;SDS011;62589;12.568;99.958;2023-09-19T06:00:29;2.22;;;0.90;;
74229;SDS011;62589;12.568;99.958;2023-09-19T06:02:57;1.58;;;0.90;;
74229;SDS011;62589;12.568;99.958;2023-09-19T06:05:25;2.67;;;1.00;;
74229;SDS011;62589;12.568;99.958;2023-09-19T06:07:52;1.60;;;1.13;;
74229;SDS011;62589;12.568;99.958;2023-09-19T06:10:19;2.38;;;1.25;;
74229;SDS011;62589;12.568;99.958;2023-09-19T06:12:46;3.65;;;1.40;;
74229;SDS011;62589;12.568;99.958;2023-09-19T06:15:14;4.05;;;1.60;;
74229;SDS011;62589;12.568;99.958;2023-09-19T06:17:42;5.72;;;1.45;;
74229;SDS011;62589;12.568;99.958;2023-09-19T06:20:11;3.50;;;1.50;;
74229;SDS011;62589;12.568;99.958;2023-09-19T06:22:42;3.60;;;1.60;;
74229;SDS011;62589;12.568;99.958;2023-09-19T06:25:09;3.58;;;1.45;;
74229;SDS011;62589;12.568;99.958;2023-09-19T06:27:38;2.45;;;1.58;;
74229;SDS011;62589;12.568;99.958;2023-09-19T06:30:09;4.70;;;1.80;;
74229;SDS011;62589;12.568;99.958;2023-09-19T06:32:42;3.70;;;1.70;;
74229;SDS011;62589;12.568;99.958;2023-09-19T06:35:13;3.45;;;1.90;;
74229;SDS011;62589;12.568;99.958;2023-09-19T06:37:42;4.68;;;2.13;;
74229;SDS011;62589;12.568;99.958;2023-09-19T06:40:10;4.25;;;2.65;;
74229;SDS011;62589;12.568;99.958;2023-09-19T06:42:41;3.50;;;2.22;;
74229;SDS011;62589;12.568;99.958;2023-09-19T06:45:11;3.10;;;2.20;;
74229;SDS011;62589;12.568;99.958;2023-09-19T06:47:43;4.60;;;2.53;;
74229;SDS011;62589;12.568;99.958;2023-09-19T06:50:22;4.70;;;2.35;;
74229;SDS011;62589;12.568;99.958;2023-09-19T06:52:49;3.00;;;2.72;;
74229;SDS011;62589;12.568;99.958;2023-09-19T06:55:19;4.35;;;2.92;;
74229;SDS011;62589;12.568;99.958;2023-09-19T06:57:49;5.25;;;3.47;;
74229;SDS011;62589;12.568;99.958;2023-09-19T07:00:16;4.85;;;4.10;;
74229;SDS011;62589;12.568;99.958;2023-09-19T07:02:56;5.07;;;3.67;;
74229;SDS011;62589;12.568;99.958;2023-09-19T07:05:27;6.55;;;3.60;;
74229;SDS011;62589;12.568;99.958;2023-09-19T07:07:53;5.63;;;3.80;;
74229;SDS011;62589;12.568;99.958;2023-09-19T07:10:21;10.35;;;5.03;;
74229;SDS011;62589;12.568;99.958;2023-09-19T07:15:29;7.38;;;4.28;;
74229;SDS011;62589;12.568;99.958;2023-09-19T07:18:05;8.23;;;4.10;;
74229;SDS011;62589;12.568;99.958;2023-09-19T07:20:32;4.72;;;3.78;;
74229;SDS011;62589;12.568;99.958;2023-09-19T07:22:59;5.65;;;3.40;;
74229;SDS011;62589;12.568;99.958;2023-09-19T07:25:30;6.57;;;3.88;;
74229;SDS011;62589;12.568;99.958;2023-09-19T07:27:57;6.85;;;3.30;;
74229;SDS011;62589;12.568;99.958;2023-09-19T07:30:26;4.22;;;3.00;;
74229;SDS011;62589;12.568;99.958;2023-09-19T07:32:52;3.85;;;2.90;;
74229;SDS011;62589;12.568;99.958;2023-09-19T07:35:19;3.67;;;2.97;;
74229;SDS011;62589;12.568;99.958;2023-09-19T07:37:46;5.43;;;3.08;;
74229;SDS011;62589;12.568;99.958;2023-09-19T07:40:17;4.75;;;2.83;;
74229;SDS011;62589;12.568;99.958;2023-09-19T07:42:43;4.90;;;2.75;;
74229;SDS011;62589;12.568;99.958;2023-09-19T07:45:12;4.95;;;3.00;;
74229;SDS011;62589;12.568;99.958;2023-09-19T07:47:46;4.57;;;2.55;;
74229;SDS011;62589;12.568;99.958;2023-09-19T07:50:13;3.75;;;2.45;;
74229;SDS011;62589;12.568;99.958;2023-09-19T07:52:41;4.43;;;2.55;;
74229;SDS011;62589;12.568;99.958;2023-09-19T07:55:09;4.13;;;2.22;;
74229;SDS011;62589;12.568;99.958;2023-09-19T07:57:37;3.33;;;2.00;;
74229;SDS011;62589;12.568;99.958;2023-09-19T08:00:03;2.53;;;1.50;;
74229;SDS011;62589;12.568;99.958;2023-09-19T08:02:35;2.08;;;1.60;;
74229;SDS011;62589;12.568;99.958;2023-09-19T08:07:35;2.97;;;1.77;;
74229;SDS011;62589;12.568;99.958;2023-09-19T08:10:03;2.78;;;1.75;;
74229;SDS011;62589;12.568;99.958;2023-09-19T08:12:33;2.60;;;1.63;;
74229;SDS011;62589;12.568;99.958;2023-09-19T08:15:12;2.42;;;1.63;;
74229;SDS011;62589;12.568;99.958;2023-09-19T08:17:42;2.40;;;1.70;;
74229;SDS011;62589;12.568;99.958;2023-09-19T08:20:09;2.40;;;1.50;;
74229;SDS011;62589;12.568;99.958;2023-09-19T08:22:46;2.42;;;1.45;;
74229;SDS011;62589;12.568;99.958;2023-09-19T08:25:15;2.75;;;1.58;;
74229;SDS011;62589;12.568;99.958;2023-09-19T08:27:45;2.22;;;1.42;;
74229;SDS011;62589;12.568;99.958;2023-09-19T08:30:20;3.53;;;1.45;;
74229;SDS011;62589;12.568;99.958;2023-09-19T08:32:59;2.28;;;1.48;;
74229;SDS011;62589;12.568;99.958;2023-09-19T08:35:29;3.10;;;1.70;;
74229;SDS011;62589;12.568;99.958;2023-09-19T08:37:55;2.53;;;1.50;;
74229;SDS011;62589;12.568;99.958;2023-09-19T08:40:22;2.67;;;1.25;;
74229;SDS011;62589;12.568;99.958;2023-09-19T08:42:50;2.67;;;1.55;;
74229;SDS011;62589;12.568;99.958;2023-09-19T08:45:17;2.55;;;1.48;;
74229;SDS011;62589;12.568;99.958;2023-09-19T08:47:50;2.40;;;1.40;;
74229;SDS011;62589;12.568;99.958;2023-09-19T08:56:29;1.48;;;1.20;;
74229;SDS011;62589;12.568;99.958;2023-09-19T08:59:00;1.98;;;1.50;;
74229;SDS011;62589;12.568;99.958;2023-09-19T09:01:36;2.72;;;1.70;;
74229;SDS011;62589;12.568;99.958;2023-09-19T09:04:08;3.28;;;1.10;;
74229;SDS011;62589;12.568;99.958;2023-09-19T09:06:38;1.95;;;1.17;;
74229;SDS011;62589;12.568;99.958;2023-09-19T09:09:05;2.47;;;1.52;;
74229;SDS011;62589;12.568;99.958;2023-09-19T09:11:34;2.38;;;1.15;;
74229;SDS011;62589;12.568;99.958;2023-09-19T09:14:05;2.72;;;1.27;;
74229;SDS011;62589;12.568;99.958;2023-09-19T09:16:33;1.65;;;1.15;;
74229;SDS011;62589;12.568;99.958;2023-09-19T09:19:00;1.85;;;0.95;;
74229;SDS011;62589;12.568;99.958;2023-09-19T09:21:27;2.03;;;1.15;;
74229;SDS011;62589;12.568;99.958;2023-09-19T09:23:54;1.48;;;1.08;;
74229;SDS011;62589;12.568;99.958;2023-09-19T09:29:12;1.75;;;1.20;;
74229;SDS011;62589;12.568;99.958;2023-09-19T09:31:39;2.35;;;1.23;;
74229;SDS011;62589;12.568;99.958;2023-09-19T09:34:07;1.27;;;1.15;;
74229;SDS011;62589;12.568;99.958;2023-09-19T09:36:35;1.45;;;1.13;;
74229;SDS011;62589;12.568;99.958;2023-09-19T09:39:03;1.95;;;1.23;;
74229;SDS011;62589;12.568;99.958;2023-09-19T09:41:41;2.97;;;1.27;;
74229;SDS011;62589;12.568;99.958;2023-09-19T09:44:15;3.05;;;1.42;;
74229;SDS011;62589;12.568;99.958;2023-09-19T09:46:46;1.65;;;1.42;;
74229;SDS011;62589;12.568;99.958;2023-09-19T09:49:33;2.67;;;1.45;;
74229;SDS011;62589;12.568;99.958;2023-09-19T09:52:02;2.35;;;1.52;;
74229;SDS011;62589;12.568;99.958;2023-09-19T09:57:34;1.52;;;1.42;;
74229;SDS011;62589;12.568;99.958;2023-09-19T10:00:01;1.98;;;1.80;;
74229;SDS011;62589;12.568;99.958;2023-09-19T10:02:47;2.22;;;1.63;;
74229;SDS011;62589;12.568;99.958;2023-09-19T10:05:17;2.50;;;1.90;;
74229;SDS011;62589;12.568;99.958;2023-09-19T10:08:12;3.03;;;1.90;;
74229;SDS011;62589;12.568;99.958;2023-09-19T10:10:44;1.83;;;1.73;;
74229;SDS011;62589;12.568;99.958;2023-09-19T10:13:20;1.83;;;1.70;;
74229;SDS011;62589;12.568;99.958;2023-09-19T10:15:49;2.72;;;1.80;;
74229;SDS011;62589;12.568;99.958;2023-09-19T10:18:22;2.25;;;1.83;;
74229;SDS011;62589;12.568;99.958;2023-09-19T10:20:51;3.67;;;2.17;;
74229;SDS011;62589;12.568;99.958;2023-09-19T10:23:18;2.85;;;2.15;;
74229;SDS011;62589;12.568;99.958;2023-09-19T10:25:48;4.53;;;2.22;;
74229;SDS011;62589;12.568;99.958;2023-09-19T10:28:16;3.03;;;1.98;;
74229;SDS011;62589;12.568;99.958;2023-09-19T10:30:50;2.30;;;2.20;;
74229;SDS011;62589;12.568;99.958;2023-09-19T10:33:19;4.00;;;2.60;;
74229;SDS011;62589;12.568;99.958;2023-09-19T10:35:48;3.70;;;2.97;;
74229;SDS011;62589;12.568;99.958;2023-09-19T10:38:22;3.22;;;2.92;;
74229;SDS011;62589;12.568;99.958;2023-09-19T10:40:50;3.13;;;2.72;;
74229;SDS011;62589;12.568;99.958;2023-09-19T10:43:19;2.90;;;2.60;;
74229;SDS011;62589;12.568;99.958;2023-09-19T10:45:50;4.07;;;2.70;;
74229;SDS011;62589;12.568;99.958;2023-09-19T10:48:18;3.35;;;2.78;;
74229;SDS011;62589;12.568;99.958;2023-09-19T10:50:47;4.97;;;2.75;;
74229;SDS011;62589;12.568;99.958;2023-09-19T10:53:16;3.70;;;3.00;;
74229;SDS011;62589;12.568;99.958;2023-09-19T10:55:51;3.15;;;2.92;;
74229;SDS011;62589;12.568;99.958;2023-09-19T10:58:25;4.00;;;2.60;;
74229;SDS011;62589;12.568;99.958;2023-09-19T11:00:54;2.97;;;2.65;;
74229;SDS011;62589;12.568;99.958;2023-09-19T11:03:28;2.50;;;2.30;;
74229;SDS011;62589;12.568;99.958;2023-09-19T11:06:11;4.38;;;2.95;;
74229;SDS011;62589;12.568;99.958;2023-09-19T11:11:41;3.53;;;3.22;;
74229;SDS011;62589;12.568;99.958;2023-09-19T11:20:18;4.25;;;2.33;;
74229;SDS011;62589;12.568;99.958;2023-09-19T11:25:44;3.65;;;2.60;;
74229;SDS011;62589;12.568;99.958;2023-09-19T11:28:28;5.68;;;3.33;;
74229;SDS011;62589;12.568;99.958;2023-09-19T11:30:56;6.28;;;3.38;;
74229;SDS011;62589;12.568;99.958;2023-09-19T11:33:25;3.42;;;2.90;;
74229;SDS011;62589;12.568;99.958;2023-09-19T11:36:07;3.50;;;2.88;;
74229;SDS011;62589;12.568;99.958;2023-09-19T11:41:36;4.82;;;2.67;;
74229;SDS011;62589;12.568;99.958;2023-09-19T11:47:08;7.07;;;2.90;;
74229;SDS011;62589;12.568;99.958;2023-09-19T11:49:36;3.40;;;2.53;;
74229;SDS011;62589;12.568;99.958;2023-09-19T11:52:06;2.53;;;2.30;;
74229;SDS011;62589;12.568;99.958;2023-09-19T11:54:35;6.10;;;2.67;;
74229;SDS011;62589;12.568;99.958;2023-09-19T11:57:05;4.60;;;2.58;;
74229;SDS011;62589;12.568;99.958;2023-09-19T11:59:33;2.83;;;2.53;;
74229;SDS011;62589;12.568;99.958;2023-09-19T12:02:04;5.13;;;3.20;;
74229;SDS011;62589;12.568;99.958;2023-09-19T12:04:41;3.78;;;2.80;;
74229;SDS011;62589;12.568;99.958;2023-09-19T12:07:15;3.35;;;2.88;;
74229;SDS011;62589;12.568;99.958;2023-09-19T12:09:43;4.57;;;2.88;;
74229;SDS011;62589;12.568;99.958;2023-09-19T12:12:28;3.63;;;2.55;;
74229;SDS011;62589;12.568;99.958;2023-09-19T12:15:01;3.47;;;2.55;;
74229;SDS011;62589;12.568;99.958;2023-09-19T12:17:38;4.28;;;2.70;;
74229;SDS011;62589;12.568;99.958;2023-09-19T12:20:06;4.43;;;2.70;;
74229;SDS011;62589;12.568;99.958;2023-09-19T12:22:41;3.42;;;2.53;;
74229;SDS011;62589;12.568;99.958;2023-09-19T12:25:13;4.57;;;2.78;;
74229;SDS011;62589;12.568;99.958;2023-09-19T12:27:42;4.00;;;2.63;;
74229;SDS011;62589;12.568;99.958;2023-09-19T12:30:18;4.45;;;2.47;;
74229;SDS011;62589;12.568;99.958;2023-09-19T12:32:48;4.18;;;2.80;;
74229;SDS011;62589;12.568;99.958;2023-09-19T12:38:00;3.85;;;2.38;;
74229;SDS011;62589;12.568;99.958;2023-09-19T12:40:28;3.25;;;2.15;;
74229;SDS011;62589;12.568;99.958;2023-09-19T12:42:58;4.20;;;2.65;;
74229;SDS011;62589;12.568;99.958;2023-09-19T12:45:30;7.25;;;2.30;;
74229;SDS011;62589;12.568;99.958;2023-09-19T12:53:37;2.15;;;1.95;;
74229;SDS011;62589;12.568;99.958;2023-09-19T12:56:26;3.40;;;2.25;;
74229;SDS011;62589;12.568;99.958;2023-09-19T12:58:58;2.83;;;1.95;;
74229;SDS011;62589;12.568;99.958;2023-09-19T13:01:28;2.90;;;2.17;;
74229;SDS011;62589;12.568;99.958;2023-09-19T13:06:54;2.83;;;2.38;;
74229;SDS011;62589;12.568;99.958;2023-09-19T13:09:26;3.03;;;2.30;;
74229;SDS011;62589;12.568;99.958;2023-09-19T13:12:04;3.42;;;2.20;;
74229;SDS011;62589;12.568;99.958;2023-09-19T13:17:48;3.72;;;2.10;;
74229;SDS011;62589;12.568;99.958;2023-09-19T13:20:25;4.78;;;2.47;;
74229;SDS011;62589;12.568;99.958;2023-09-19T13:22:57;4.57;;;2.70;;
74229;SDS011;62589;12.568;99.958;2023-09-19T13:25:31;6.57;;;3.03;;
74229;SDS011;62589;12.568;99.958;2023-09-19T13:28:00;6.68;;;4.07;;
74229;SDS011;62589;12.568;99.958;2023-09-19T13:30:30;7.13;;;5.25;;
74229;SDS011;62589;12.568;99.958;2023-09-19T13:33:10;8.85;;;5.45;;
74229;SDS011;62589;12.568;99.958;2023-09-19T13:35:39;11.18;;;6.18;;
74229;SDS011;62589;12.568;99.958;2023-09-19T13:38:06;16.80;;;10.10;;
74229;SDS011;62589;12.568;99.958;2023-09-19T13:40:38;27.85;;;16.25;;
74229;SDS011;62589;12.568;99.958;2023-09-19T13:43:07;40.03;;;21.38;;
74229;SDS011;62589;12.568;99.958;2023-09-19T13:45:34;39.47;;;21.33;;
74229;SDS011;62589;12.568;99.958;2023-09-19T13:48:02;37.80;;;21.35;;
74229;SDS011;62589;12.568;99.958;2023-09-19T13:50:28;34.45;;;21.27;;
74229;SDS011;62589;12.568;99.958;2023-09-19T13:52:56;40.97;;;23.85;;
74229;SDS011;62589;12.568;99.958;2023-09-19T13:55:26;43.08;;;24.80;;
74229;SDS011;62589;12.568;99.958;2023-09-19T13:57:52;43.50;;;24.17;;
74229;SDS011;62589;12.568;99.958;2023-09-19T14:00:21;48.40;;;27.92;;
74229;SDS011;62589;12.568;99.958;2023-09-19T14:02:48;46.08;;;26.15;;
74229;SDS011;62589;12.568;99.958;2023-09-19T14:05:16;52.35;;;29.10;;
74229;SDS011;62589;12.568;99.958;2023-09-19T14:07:43;52.28;;;29.98;;
74229;SDS011;62589;12.568;99.958;2023-09-19T14:10:11;52.70;;;29.20;;
74229;SDS011;62589;12.568;99.958;2023-09-19T14:12:38;65.88;;;35.03;;
74229;SDS011;62589;12.568;99.958;2023-09-19T14:15:09;63.45;;;37.25;;
74229;SDS011;62589;12.568;99.958;2023-09-19T14:17:36;62.70;;;36.55;;
74229;SDS011;62589;12.568;99.958;2023-09-19T14:20:03;65.05;;;37.97;;
74229;SDS011;62589;12.568;99.958;2023-09-19T14:22:32;68.60;;;38.65;;
74229;SDS011;62589;12.568;99.958;2023-09-19T14:24:59;69.75;;;38.28;;
74229;SDS011;62589;12.568;99.958;2023-09-19T14:27:25;58.78;;;35.03;;
74229;SDS011;62589;12.568;99.958;2023-09-19T14:29:52;61.75;;;35.13;;
74229;SDS011;62589;12.568;99.958;2023-09-19T14:32:19;56.85;;;33.85;;
74229;SDS011;62589;12.568;99.958;2023-09-19T14:34:45;53.88;;;32.45;;
74229;SDS011;62589;12.568;99.958;2023-09-19T14:37:12;52.50;;;30.77;;
74229;SDS011;62589;12.568;99.958;2023-09-19T14:39:40;57.22;;;30.92;;
74229;SDS011;62589;12.568;99.958;2023-09-19T14:42:10;50.83;;;29.15;;
74229;SDS011;62589;12.568;99.958;2023-09-19T14:44:38;49.33;;;28.02;;
74229;SDS011;62589;12.568;99.958;2023-09-19T14:47:04;45.28;;;26.60;;
74229;SDS011;62589;12.568;99.958;2023-09-19T14:49:35;44.75;;;26.05;;
74229;SDS011;62589;12.568;99.958;2023-09-19T14:52:02;39.50;;;24.63;;
74229;SDS011;62589;12.568;99.958;2023-09-19T14:54:30;41.47;;;24.45;;
74229;SDS011;62589;12.568;99.958;2023-09-19T14:56:56;41.30;;;22.33;;
74229;SDS011;62589;12.568;99.958;2023-09-19T14:59:32;39.83;;;22.75;;
74229;SDS011;62589;12.568;99.958;2023-09-19T15:02:03;39.85;;;22.05;;
74229;SDS011;62589;12.568;99.958;2023-09-19T15:04:30;36.95;;;20.90;;
74229;SDS011;62589;12.568;99.958;2023-09-19T15:06:57;32.45;;;18.77;;
74229;SDS011;62589;12.568;99.958;2023-09-19T15:09:24;33.25;;;18.83;;
74229;SDS011;62589;12.568;99.958;2023-09-19T15:11:52;29.88;;;17.20;;
74229;SDS011;62589;12.568;99.958;2023-09-19T15:14:19;24.58;;;15.30;;
74229;SDS011;62589;12.568;99.958;2023-09-19T15:16:46;20.38;;;13.10;;
74229;SDS011;62589;12.568;99.958;2023-09-19T15:19:14;21.08;;;12.13;;
74229;SDS011;62589;12.568;99.958;2023-09-19T15:21:41;19.35;;;10.88;;
74229;SDS011;62589;12.568;99.958;2023-09-19T15:24:07;16.58;;;10.13;;
74229;SDS011;62589;12.568;99.958;2023-09-19T15:26:36;17.33;;;9.95;;
74229;SDS011;62589;12.568;99.958;2023-09-19T15:29:09;16.15;;;9.95;;
74229;SDS011;62589;12.568;99.958;2023-09-19T15:31:36;17.50;;;10.20;;
74229;SDS011;62589;12.568;99.958;2023-09-19T15:34:03;15.23;;;9.52;;
74229;SDS011;62589;12.568;99.958;2023-09-19T15:36:32;17.23;;;8.95;;
74229;SDS011;62589;12.568;99.958;2023-09-19T15:39:00;16.15;;;8.15;;
74229;SDS011;62589;12.568;99.958;2023-09-19T15:41:37;13.18;;;7.20;;
74229;SDS011;62589;12.568;99.958;2023-09-19T15:44:13;10.60;;;6.13;;
74229;SDS011;62589;12.568;99.958;2023-09-19T15:46:41;8.52;;;5.15;;
74229;SDS011;62589;12.568;99.958;2023-09-19T15:49:09;8.15;;;4.18;;
74229;SDS011;62589;12.568;99.958;2023-09-19T15:51:36;8.05;;;4.22;;